createdAt,value
2023-05-20T00:00:17.335Z,18.25
2023-05-20T00:03:04.415Z,17.58
2023-05-20T00:05:51.520Z,18.20
2023-05-20T00:08:31.307Z,18.45
2023-05-20T00:11:18.291Z,18.70
2023-05-20T00:14:05.309Z,18.08
2023-05-20T00:16:45.805Z,20.27
2023-05-20T00:19:32.279Z,18.48
2023-05-20T00:22:12.660Z,18.40
2023-05-20T00:24:59.328Z,17.92
2023-05-20T00:27:47.310Z,18.83
2023-05-20T00:30:27.268Z,18.88
2023-05-20T00:33:08.083Z,19.10
2023-05-20T00:35:55.298Z,18.67
2023-05-20T00:38:42.281Z,18.83
2023-05-20T00:41:29.258Z,18.08
2023-05-20T00:44:10.220Z,19.67
2023-05-20T00:46:58.253Z,18.60
2023-05-20T00:49:45.889Z,17.92
2023-05-20T00:52:35.289Z,19.17
2023-05-20T00:55:22.275Z,19.17
2023-05-20T00:58:02.317Z,18.90
2023-05-20T01:00:49.201Z,18.40
2023-05-20T01:03:29.453Z,19.50
2023-05-20T01:06:16.224Z,19.23
2023-05-20T01:09:03.257Z,18.85
2023-05-20T01:11:57.236Z,19.25
2023-05-20T01:14:50.256Z,17.90
2023-05-20T01:17:33.235Z,18.58
2023-05-20T01:20:22.247Z,18.33
2023-05-20T01:23:03.414Z,18.58
2023-05-20T01:25:50.176Z,19.17
2023-05-20T01:28:30.637Z,18.60
2023-05-20T01:31:20.239Z,19.10
2023-05-20T01:34:08.179Z,18.10
2023-05-20T01:36:56.197Z,18.30
2023-05-20T01:39:41.806Z,18.23
2023-05-20T01:42:29.192Z,17.48
2023-05-20T01:45:10.056Z,17.85
2023-05-20T01:47:59.223Z,18.58
2023-05-20T01:50:40.111Z,18.33
2023-05-20T01:53:27.133Z,16.75
2023-05-20T01:56:07.519Z,16.88
2023-05-20T01:58:54.152Z,17.70
2023-05-20T02:01:41.202Z,16.35
2023-05-20T02:04:22.765Z,18.23
2023-05-20T02:07:09.149Z,16.08
2023-05-20T02:09:49.293Z,17.70
2023-05-20T02:12:36.141Z,16.25
2023-05-20T02:15:16.373Z,17.63
2023-05-20T02:18:04.215Z,17.05
2023-05-20T02:20:44.231Z,16.55
2023-05-20T02:23:31.124Z,17.10
2023-05-20T02:26:18.142Z,16.90
2023-05-20T02:28:58.530Z,16.55
2023-05-20T02:31:45.171Z,15.90
2023-05-20T02:34:26.343Z,15.57
2023-05-20T02:37:13.117Z,15.50
2023-05-20T02:39:53.509Z,15.18
2023-05-20T02:42:40.129Z,16.55
2023-05-20T02:45:27.089Z,15.90
2023-05-20T02:48:21.130Z,15.32
2023-05-20T02:51:08.107Z,15.13
2023-05-20T02:53:48.189Z,15.43
2023-05-20T02:56:35.125Z,14.77
2023-05-20T02:59:22.111Z,15.35
2023-05-20T03:02:03.311Z,15.38
2023-05-20T03:04:50.118Z,15.70
2023-05-20T03:07:30.500Z,16.48
2023-05-20T03:10:21.089Z,15.50
2023-05-20T03:13:08.092Z,16.25
2023-05-20T03:15:56.135Z,15.95
2023-05-20T03:18:36.437Z,16.38
2023-05-20T03:21:23.100Z,15.30
2023-05-20T03:24:03.557Z,15.68
2023-05-20T03:26:50.112Z,17.88
2023-05-20T03:29:38.064Z,16.05
2023-05-20T03:32:18.217Z,15.43
2023-05-20T03:35:07.082Z,14.07
2023-05-20T03:37:47.101Z,13.77
2023-05-20T03:40:36.106Z,16.08
2023-05-20T03:43:16.257Z,14.95
2023-05-20T03:46:10.095Z,14.40
2023-05-20T03:49:04.022Z,14.07
2023-05-20T03:51:51.033Z,14.65
2023-05-20T03:54:31.671Z,15.00
2023-05-20T03:57:19.051Z,14.88
2023-05-20T04:00:06.022Z,14.40
2023-05-20T04:03:03.178Z,13.95
2023-05-20T04:05:43.124Z,15.00
2023-05-20T04:08:33.983Z,14.80
2023-05-20T04:11:14.074Z,15.27
2023-05-20T04:14:01.017Z,14.60
2023-05-20T04:16:41.201Z,14.02
2023-05-20T04:19:28.082Z,13.25
2023-05-20T04:22:08.060Z,13.38
2023-05-20T04:24:54.996Z,12.25
2023-05-20T04:27:35.168Z,12.35
2023-05-20T04:30:25.031Z,10.82
2023-05-20T04:33:05.108Z,11.18
2023-05-20T04:35:54.985Z,12.00
2023-05-20T04:38:36.148Z,9.85
2023-05-20T04:41:23.020Z,11.43
2023-05-20T04:44:03.941Z,10.02
2023-05-20T04:46:50.945Z,10.63
2023-05-20T04:49:31.136Z,9.38
2023-05-20T04:52:17.975Z,10.35
2023-05-20T04:54:59.083Z,10.02
2023-05-20T04:57:47.965Z,9.68
2023-05-20T05:00:28.079Z,10.45
2023-05-20T05:03:15.011Z,10.27
2023-05-20T05:05:56.024Z,10.57
2023-05-20T05:08:42.889Z,11.43
2023-05-20T05:11:29.976Z,12.60
2023-05-20T05:14:16.938Z,11.23
2023-05-20T05:17:03.959Z,11.68
2023-05-20T05:19:44.328Z,11.05
2023-05-20T05:22:30.987Z,9.75
2023-05-20T05:25:12.246Z,11.73
2023-05-20T05:27:58.870Z,9.88
2023-05-20T05:30:45.903Z,15.35
2023-05-20T05:33:26.117Z,13.13
2023-05-20T05:36:12.976Z,10.07
2023-05-20T05:38:53.083Z,10.10
2023-05-20T05:41:39.909Z,11.80
2023-05-20T05:44:27.937Z,9.55
2023-05-20T05:47:21.890Z,11.23
2023-05-20T05:50:02.374Z,10.32
2023-05-20T05:52:49.892Z,11.65
2023-05-20T05:55:36.903Z,10.48
2023-05-20T05:58:17.769Z,12.00
2023-05-20T06:01:04.954Z,10.05
2023-05-20T06:03:45.099Z,10.00
2023-05-20T06:06:31.874Z,10.35
2023-05-20T06:09:18.923Z,10.95
2023-05-20T06:11:59.298Z,11.80
2023-05-20T06:14:45.854Z,11.80
2023-05-20T06:17:32.898Z,11.65
2023-05-20T06:20:14.041Z,11.00
2023-05-20T06:23:00.838Z,11.68
2023-05-20T06:26:05.996Z,11.10
2023-05-20T06:28:52.848Z,11.27
2023-05-20T06:31:33.096Z,11.05
2023-05-20T06:34:19.904Z,11.82
2023-05-20T06:36:59.986Z,11.90
2023-05-20T06:39:46.867Z,12.43
2023-05-20T06:42:27.944Z,12.45
2023-05-20T06:45:18.804Z,12.57
2023-05-20T06:48:16.855Z,13.50
2023-05-20T06:51:03.841Z,12.00
2023-05-20T06:53:51.824Z,13.20
2023-05-20T06:56:38.973Z,13.65
2023-05-20T06:59:20.847Z,13.23
2023-05-20T07:02:08.036Z,14.43
2023-05-20T07:04:47.785Z,13.50
2023-05-20T07:07:28.177Z,14.40
2023-05-20T07:10:14.845Z,14.25
2023-05-20T07:12:55.264Z,13.52
2023-05-20T07:15:41.862Z,14.13
2023-05-20T07:18:29.797Z,15.13
2023-05-20T07:21:09.933Z,15.23
2023-05-20T07:27:19.002Z,15.35
2023-05-20T07:29:59.196Z,16.35
2023-05-20T07:45:27.838Z,14.70
2023-05-20T07:48:16.012Z,14.20
2023-05-20T07:50:59.215Z,15.73
2023-05-20T07:53:46.885Z,14.80
2023-05-20T07:56:27.064Z,15.15
2023-05-20T07:59:13.818Z,14.20
2023-05-20T08:02:02.887Z,15.77
2023-05-20T08:04:43.331Z,15.25
2023-05-20T08:07:30.845Z,14.30
2023-05-20T08:10:11.919Z,15.15
2023-05-20T08:13:00.770Z,14.73
2023-05-20T08:15:47.818Z,14.98
2023-05-20T08:18:28.099Z,22.17
2023-05-20T08:21:14.833Z,23.33
2023-05-20T08:23:54.911Z,23.90
2023-05-20T08:26:41.805Z,13.38
2023-05-20T08:29:30.793Z,13.40
2023-05-20T08:32:11.596Z,11.02
2023-05-20T08:34:59.790Z,11.60
2023-05-20T08:37:40.161Z,12.10
2023-05-20T08:40:27.857Z,10.75
2023-05-20T08:43:14.817Z,10.88
2023-05-20T08:45:56.067Z,10.00
2023-05-20T08:48:43.831Z,10.02
2023-05-20T08:51:27.936Z,10.90
2023-05-20T08:54:15.834Z,9.75
2023-05-20T08:56:56.031Z,10.77
2023-05-20T08:59:43.798Z,8.68
2023-05-20T09:02:23.875Z,7.93
2023-05-20T09:05:11.851Z,7.32
2023-05-20T09:07:51.925Z,6.05
2023-05-20T09:10:39.778Z,6.40
2023-05-20T09:13:26.835Z,6.57
2023-05-20T09:16:07.346Z,6.18
2023-05-20T09:18:53.783Z,4.63
2023-05-20T09:21:35.891Z,5.18
2023-05-20T09:24:22.734Z,6.30
2023-05-20T09:27:03.230Z,5.15
2023-05-20T09:29:50.749Z,6.97
2023-05-20T09:32:31.480Z,6.90
2023-05-20T09:35:19.764Z,7.70
2023-05-20T09:38:00.378Z,8.35
2023-05-20T09:40:46.792Z,6.72
2023-05-20T09:43:27.405Z,6.35
2023-05-20T09:46:13.737Z,8.25
2023-05-20T09:48:54.796Z,8.40
2023-05-20T09:51:42.713Z,9.25
2023-05-20T09:54:25.687Z,9.55
2023-05-20T09:57:13.723Z,8.15
2023-05-20T10:00:00.737Z,9.23
2023-05-20T10:02:59.858Z,10.55
2023-05-20T10:06:07.532Z,9.38
2023-05-20T10:08:57.747Z,8.85
2023-05-20T10:11:56.727Z,8.25
2023-05-20T10:14:52.650Z,11.05
2023-05-20T10:17:54.872Z,9.95
2023-05-20T10:20:34.739Z,11.23
2023-05-20T10:23:27.919Z,10.02
2023-05-20T10:26:20.736Z,9.85
2023-05-20T10:29:01.170Z,19.23
2023-05-20T10:31:58.729Z,19.35
2023-05-20T10:34:54.659Z,19.70
2023-05-20T10:37:36.795Z,20.27
2023-05-20T10:40:26.670Z,22.02
2023-05-20T10:43:19.044Z,19.08
2023-05-20T10:46:10.485Z,18.85
2023-05-20T10:48:56.997Z,18.33
2023-05-20T10:51:43.654Z,19.02
2023-05-20T10:54:23.760Z,19.20
2023-05-20T10:57:15.696Z,18.17
2023-05-20T10:59:56.898Z,19.30
2023-05-20T11:02:44.753Z,17.50
2023-05-20T11:05:25.823Z,19.00
2023-05-20T11:08:27.769Z,19.05
2023-05-20T11:11:15.644Z,18.50
2023-05-20T11:13:57.490Z,19.58
2023-05-20T11:16:44.786Z,18.60
2023-05-20T11:19:26.733Z,18.77
2023-05-20T11:22:13.645Z,18.50
2023-05-20T11:25:00.679Z,19.33
2023-05-20T11:27:41.481Z,17.80
2023-05-20T11:30:28.643Z,17.77
2023-05-20T11:33:11.310Z,18.38
2023-05-20T11:35:59.590Z,18.73
2023-05-20T11:38:39.706Z,18.88
2023-05-20T11:41:31.682Z,18.20
2023-05-20T11:44:16.763Z,18.95
2023-05-20T11:47:08.608Z,18.42
2023-05-20T11:49:48.737Z,19.15
2023-05-20T11:52:35.585Z,19.27
2023-05-20T11:55:18.711Z,19.95
2023-05-20T11:58:06.577Z,17.80
2023-05-20T12:00:52.804Z,19.48
2023-05-20T12:03:42.740Z,17.92
2023-05-20T12:06:23.676Z,18.48
2023-05-20T12:09:14.598Z,18.17
2023-05-20T12:11:56.706Z,17.90
2023-05-20T12:14:43.692Z,18.02
2023-05-20T12:17:30.615Z,18.23
2023-05-20T12:20:13.191Z,18.38
2023-05-20T12:22:59.592Z,18.20
2023-05-20T12:25:39.968Z,17.88
2023-05-20T12:28:26.755Z,19.30
2023-05-20T12:31:07.750Z,18.38
2023-05-20T12:33:54.616Z,17.70
2023-05-20T12:36:34.936Z,17.85
2023-05-20T12:39:24.605Z,17.55
2023-05-20T12:42:05.099Z,18.02
2023-05-20T12:44:51.551Z,16.95
2023-05-20T12:47:39.597Z,17.98
2023-05-20T12:50:19.729Z,16.75
2023-05-20T12:53:06.577Z,18.38
2023-05-20T12:55:46.759Z,18.50
2023-05-20T12:58:33.508Z,18.85
2023-05-20T13:01:13.690Z,19.02
2023-05-20T13:04:00.527Z,18.98
2023-05-20T13:06:41.624Z,18.33
2023-05-20T13:09:28.556Z,18.25
2023-05-20T13:12:08.742Z,19.40
2023-05-20T13:14:55.544Z,20.73
2023-05-20T13:17:35.729Z,18.08
2023-05-20T13:20:23.512Z,21.67
2023-05-20T13:23:10.544Z,18.38
2023-05-20T13:25:57.477Z,18.08
2023-05-20T13:28:37.662Z,18.33
2023-05-20T13:31:24.578Z,20.05
2023-05-20T13:34:04.740Z,20.50
2023-05-20T13:36:52.537Z,19.02
2023-05-20T13:39:39.552Z,18.13
2023-05-20T13:42:26.556Z,20.85
2023-05-20T13:45:13.641Z,17.65
2023-05-20T13:47:53.597Z,19.40
2023-05-20T13:50:43.401Z,18.63
2023-05-20T13:53:23.892Z,19.90
2023-05-20T13:56:11.550Z,21.98
2023-05-20T13:58:58.445Z,18.95
2023-05-20T14:01:40.598Z,18.60
2023-05-20T14:04:28.542Z,22.20
2023-05-20T14:07:09.947Z,19.50
2023-05-20T14:09:56.694Z,18.13
2023-05-20T14:12:37.319Z,18.02
2023-05-20T14:15:25.540Z,18.83
2023-05-20T14:18:12.635Z,17.63
2023-05-20T14:20:52.733Z,17.42
2023-05-20T14:23:39.461Z,19.83
2023-05-20T14:26:19.591Z,19.52
2023-05-20T14:29:06.491Z,20.58
2023-05-20T14:31:46.616Z,19.98
2023-05-20T14:34:33.487Z,18.05
2023-05-20T14:37:13.785Z,19.08
2023-05-20T14:40:01.434Z,17.17
2023-05-20T14:42:48.467Z,17.00
2023-05-20T14:45:35.577Z,17.02
2023-05-20T14:48:15.493Z,18.73
2023-05-20T14:50:56.012Z,18.98
2023-05-20T14:53:42.446Z,16.50
2023-05-20T14:56:29.473Z,17.83
2023-05-20T14:59:09.784Z,17.77
2023-05-20T15:01:56.482Z,17.08
2023-05-20T15:04:43.401Z,17.38
2023-05-20T15:07:23.826Z,18.42
2023-05-20T15:10:10.408Z,17.73
2023-05-20T15:12:51.385Z,18.48
2023-05-20T15:15:39.379Z,18.20
2023-05-20T15:18:29.539Z,19.80
2023-05-20T15:21:09.705Z,17.75
2023-05-20T15:23:56.476Z,18.40
2023-05-20T15:26:46.361Z,18.00
2023-05-20T15:29:26.876Z,18.67
2023-05-20T15:32:13.562Z,18.27
2023-05-20T15:34:55.744Z,17.40
2023-05-20T15:37:42.339Z,17.10
2023-05-20T15:40:22.833Z,18.00
2023-05-20T15:43:09.529Z,17.50
2023-05-20T15:45:56.586Z,18.40
2023-05-20T15:48:36.518Z,18.15
2023-05-20T15:51:18.014Z,18.38
2023-05-20T15:54:04.360Z,17.33
2023-05-20T15:56:51.364Z,18.67
2023-05-20T15:59:38.400Z,19.63
2023-05-20T16:02:18.842Z,18.30
2023-05-20T16:05:05.606Z,17.77
2023-05-20T16:07:46.802Z,17.75
2023-05-20T16:10:38.514Z,18.45
2023-05-20T16:13:18.733Z,16.83
2023-05-20T16:16:05.471Z,17.58
2023-05-20T16:18:46.305Z,17.40
2023-05-20T16:21:36.523Z,18.30
2023-05-20T16:24:17.136Z,19.20
2023-05-20T16:27:04.369Z,17.40
2023-05-20T16:29:45.672Z,17.98
2023-05-20T16:32:32.418Z,18.80
2023-05-20T16:35:19.342Z,17.23
2023-05-20T16:37:59.521Z,16.67
2023-05-20T16:40:46.300Z,16.83
2023-05-20T16:43:33.291Z,17.65
2023-05-20T16:46:20.770Z,18.23
2023-05-20T16:49:00.344Z,16.90
2023-05-20T16:51:40.725Z,18.50
2023-05-20T16:54:28.346Z,17.88
2023-05-20T16:57:08.893Z,17.48
2023-05-20T16:59:55.340Z,17.08
2023-05-20T17:02:42.349Z,17.48
2023-05-20T17:05:22.578Z,17.98
2023-05-20T17:08:09.355Z,17.10
2023-05-20T17:10:56.318Z,17.45
2023-05-20T17:13:36.690Z,16.92
2023-05-20T17:16:23.295Z,16.63
2023-05-20T17:19:10.286Z,18.77
2023-05-20T17:21:50.536Z,19.05
2023-05-20T17:24:37.271Z,18.45
2023-05-20T17:27:24.283Z,17.65
2023-05-20T17:30:05.692Z,18.10
2023-05-20T17:32:54.091Z,18.58
2023-05-20T17:35:35.638Z,18.27
2023-05-20T17:38:22.255Z,17.15
2023-05-20T17:41:02.583Z,18.55
2023-05-20T17:43:49.311Z,17.88
2023-05-20T17:46:36.524Z,17.65
2023-05-20T17:49:16.234Z,16.92
2023-05-20T17:52:03.312Z,25.52
2023-05-20T17:54:43.234Z,16.50
2023-05-20T17:57:23.581Z,17.38
2023-05-20T18:00:10.214Z,18.45
2023-05-20T18:03:00.629Z,17.73
2023-05-20T18:05:41.256Z,18.27
2023-05-20T18:08:28.629Z,17.42
2023-05-20T18:11:08.168Z,17.48
2023-05-20T18:13:48.593Z,18.88
2023-05-20T18:16:35.198Z,18.13
2023-05-20T18:19:15.803Z,18.30
2023-05-20T18:22:02.184Z,18.13
2023-05-20T18:24:42.615Z,17.10
2023-05-20T18:27:29.168Z,17.88
2023-05-20T18:30:17.209Z,17.40
2023-05-20T18:32:57.553Z,17.25
2023-05-20T18:35:44.161Z,18.13
2023-05-20T18:38:24.269Z,17.67
2023-05-20T18:41:12.216Z,18.75
2023-05-20T18:43:52.274Z,17.33
2023-05-20T18:46:40.230Z,17.42
2023-05-20T18:49:20.346Z,18.35
2023-05-20T18:52:07.220Z,18.17
2023-05-20T18:54:47.455Z,18.10
2023-05-20T18:57:34.176Z,17.10
2023-05-20T19:00:15.713Z,17.95
2023-05-20T19:03:04.239Z,18.83
2023-05-20T19:05:51.252Z,18.33
2023-05-20T19:08:39.147Z,17.13
2023-05-20T19:11:26.158Z,17.17
2023-05-20T19:14:07.573Z,17.70
2023-05-20T19:16:55.207Z,18.98
2023-05-20T19:19:35.695Z,18.73
2023-05-20T19:22:22.147Z,19.65
2023-05-20T19:25:02.575Z,18.83
2023-05-20T19:27:49.167Z,18.25
2023-05-20T19:46:54.292Z,17.92
2023-05-20T19:49:41.346Z,18.50
2023-05-20T19:52:21.375Z,17.77
2023-05-20T19:55:08.294Z,18.25
2023-05-20T19:57:53.297Z,18.13
2023-05-20T20:00:40.291Z,17.73
2023-05-20T20:03:20.629Z,18.75
2023-05-20T20:06:07.316Z,18.02
2023-05-20T20:08:47.400Z,19.05
2023-05-20T20:11:34.302Z,17.95
2023-05-20T20:14:14.389Z,17.85
2023-05-20T20:17:01.287Z,18.50
2023-05-20T20:19:49.255Z,18.83
2023-05-20T20:22:36.289Z,17.00
2023-05-20T20:25:16.477Z,16.73
2023-05-20T20:28:03.306Z,17.65
2023-05-20T20:30:44.466Z,18.73
2023-05-20T20:33:31.234Z,17.88
2023-05-20T20:36:11.428Z,18.52
2023-05-20T20:38:58.299Z,17.25
2023-05-20T20:41:46.282Z,17.48
2023-05-20T20:44:33.297Z,18.02
2023-05-20T20:47:14.858Z,18.58
2023-05-20T20:50:03.302Z,17.98
2023-05-20T20:52:43.458Z,18.40
2023-05-20T20:55:30.299Z,17.83
2023-05-20T20:58:10.608Z,17.27
2023-05-20T21:00:57.306Z,17.38
2023-05-20T21:03:47.281Z,17.20
2023-05-20T21:06:27.611Z,17.52
2023-05-20T21:09:14.209Z,18.02
2023-05-20T21:12:03.172Z,17.80
2023-05-20T21:14:44.449Z,17.80
2023-05-20T21:17:31.267Z,18.35
2023-05-20T21:20:12.382Z,18.45
2023-05-20T21:22:59.214Z,18.35
2023-05-20T21:25:46.178Z,17.88
2023-05-20T21:28:33.227Z,19.08
2023-05-20T21:31:13.453Z,17.23
2023-05-20T21:34:00.267Z,17.70
2023-05-20T21:36:40.336Z,18.42
2023-05-20T21:39:27.175Z,18.45
2023-05-20T21:42:14.257Z,25.45
2023-05-20T21:45:01.237Z,17.45
2023-05-20T21:47:48.142Z,19.60
2023-05-20T21:50:35.134Z,19.05
2023-05-20T21:53:15.342Z,19.00
2023-05-20T21:56:02.165Z,18.23
2023-05-20T21:58:42.311Z,18.15
2023-05-20T22:01:29.240Z,17.80
2023-05-20T22:04:16.217Z,18.50
2023-05-20T22:07:03.157Z,17.50
2023-05-20T22:09:50.137Z,18.13
2023-05-20T22:12:38.237Z,18.60
2023-05-20T22:15:18.268Z,19.20
2023-05-20T22:18:07.616Z,17.67
2023-05-20T22:20:49.219Z,18.17
2023-05-20T22:23:36.187Z,18.55
2023-05-20T22:26:19.053Z,18.63
2023-05-20T22:29:06.169Z,17.98
2023-05-20T22:31:46.300Z,19.15
2023-05-20T22:34:33.211Z,18.67
2023-05-20T22:37:13.259Z,17.60
2023-05-20T22:40:00.136Z,17.65
2023-05-20T22:42:47.057Z,18.60
2023-05-20T22:45:34.342Z,19.02
2023-05-20T22:48:14.407Z,18.10
2023-05-20T22:51:03.150Z,17.40
2023-05-20T22:53:43.255Z,18.77
2023-05-20T22:56:30.224Z,18.42
2023-05-20T22:59:17.130Z,17.10
2023-05-20T23:01:57.617Z,17.85
2023-05-20T23:04:44.126Z,19.15
2023-05-20T23:07:24.629Z,17.63
2023-05-20T23:10:11.113Z,17.40
2023-05-20T23:12:52.262Z,16.90
2023-05-20T23:15:39.055Z,18.00
2023-05-20T23:18:26.073Z,17.98
2023-05-20T23:21:13.098Z,18.70
2023-05-20T23:24:00.096Z,17.73
2023-05-20T23:26:47.070Z,18.70
2023-05-20T23:29:27.592Z,18.30
2023-05-20T23:32:14.047Z,18.10
2023-05-20T23:34:55.417Z,17.48
2023-05-20T23:37:42.209Z,17.42
2023-05-20T23:40:29.101Z,18.80
2023-05-20T23:43:16.139Z,18.02
2023-05-20T23:46:10.128Z,17.80
2023-05-20T23:48:50.553Z,17.33
2023-05-20T23:51:37.060Z,18.17
2023-05-20T23:54:25.039Z,18.42
2023-05-20T23:57:05.323Z,19.65
2023-05-20T23:59:52.086Z,19.77
